createdAt,value
2023-03-17T00:01:24.204Z,50.91
2023-03-17T00:03:51.706Z,51.33
2023-03-17T00:06:25.353Z,51.06
2023-03-17T00:08:52.463Z,51.52
2023-03-17T00:11:21.480Z,51.95
2023-03-17T00:13:49.228Z,51.95
2023-03-17T00:16:26.078Z,51.94
2023-03-17T00:18:55.132Z,52.33
2023-03-17T00:21:30.793Z,52.37
2023-03-17T00:23:59.674Z,51.82
2023-03-17T00:26:27.877Z,51.84
2023-03-17T00:28:55.654Z,52.05
2023-03-17T00:31:25.944Z,52.15
2023-03-17T00:33:54.447Z,52.38
2023-03-17T00:36:28.251Z,52.82
2023-03-17T00:38:55.961Z,52.97
2023-03-17T00:41:25.423Z,53.14
2023-03-17T00:43:52.867Z,52.79
2023-03-17T00:46:27.767Z,52.42
2023-03-17T00:48:55.393Z,51.80
2023-03-17T00:51:23.580Z,51.89
2023-03-17T00:53:50.967Z,52.21
2023-03-17T00:56:20.877Z,52.24
2023-03-17T00:58:48.889Z,52.31
2023-03-17T01:01:16.552Z,52.52
2023-03-17T01:03:43.749Z,52.59
2023-03-17T01:06:13.297Z,52.69
2023-03-17T01:08:41.250Z,52.41
2023-03-17T01:11:20.242Z,52.20
2023-03-17T01:13:48.174Z,52.07
2023-03-17T01:16:15.869Z,52.26
2023-03-17T01:18:43.757Z,52.26
2023-03-17T01:21:10.923Z,52.22
2023-03-17T01:23:38.253Z,52.53
2023-03-17T01:26:06.820Z,52.53
2023-03-17T01:28:34.695Z,52.70
2023-03-17T01:31:03.009Z,52.82
2023-03-17T01:33:30.165Z,52.91
2023-03-17T01:35:57.775Z,53.24
2023-03-17T01:38:24.909Z,52.84
2023-03-17T01:40:52.663Z,52.88
2023-03-17T01:43:24.375Z,52.99
2023-03-17T01:46:22.366Z,53.15
2023-03-17T01:48:58.721Z,53.17
2023-03-17T01:51:47.602Z,53.72
2023-03-17T01:54:20.907Z,53.40
2023-03-17T01:56:52.295Z,53.79
2023-03-17T01:59:28.825Z,53.98
2023-03-17T02:02:01.649Z,53.88
2023-03-17T02:04:29.904Z,53.79
2023-03-17T02:06:58.936Z,53.99
2023-03-17T02:09:28.040Z,54.26
2023-03-17T02:11:56.509Z,54.44
2023-03-17T02:14:23.986Z,54.84
2023-03-17T02:16:51.215Z,54.87
2023-03-17T02:19:18.606Z,55.09
2023-03-17T02:21:54.119Z,55.52
2023-03-17T02:24:28.340Z,55.43
2023-03-17T02:27:03.682Z,55.40
2023-03-17T02:29:35.089Z,55.10
2023-03-17T02:32:03.133Z,55.09
2023-03-17T02:34:31.918Z,54.93
2023-03-17T02:36:59.382Z,55.33
2023-03-17T02:39:26.912Z,55.12
2023-03-17T02:41:54.083Z,54.73
2023-03-17T02:44:22.190Z,54.65
2023-03-17T02:46:49.642Z,54.73
2023-03-17T02:49:17.660Z,55.00
2023-03-17T02:51:45.860Z,54.94
2023-03-17T02:54:13.050Z,55.02
2023-03-17T02:56:40.177Z,54.92
2023-03-17T02:59:07.382Z,54.79
2023-03-17T03:01:35.128Z,54.63
2023-03-17T03:04:02.695Z,54.56
2023-03-17T03:06:29.887Z,54.46
2023-03-17T03:08:57.031Z,54.54
2023-03-17T03:11:24.103Z,54.73
2023-03-17T03:13:51.330Z,54.89
2023-03-17T03:16:18.470Z,54.96
2023-03-17T03:18:45.849Z,54.66
2023-03-17T03:21:12.954Z,54.50
2023-03-17T03:23:40.292Z,54.72
2023-03-17T03:26:07.935Z,54.61
2023-03-17T03:28:35.245Z,54.49
2023-03-17T03:31:02.312Z,55.04
2023-03-17T03:33:29.462Z,54.79
2023-03-17T03:35:57.130Z,54.14
2023-03-17T03:38:24.387Z,54.37
2023-03-17T03:40:53.021Z,54.44
2023-03-17T03:43:23.727Z,54.19
2023-03-17T03:45:52.129Z,54.30
2023-03-17T03:48:19.383Z,54.78
2023-03-17T03:50:46.602Z,54.77
2023-03-17T03:53:14.393Z,55.03
2023-03-17T03:55:41.906Z,54.96
2023-03-17T03:58:09.107Z,54.81
2023-03-17T04:00:36.270Z,54.84
2023-03-17T04:03:03.491Z,54.49
2023-03-17T04:05:32.950Z,54.88
2023-03-17T04:08:00.143Z,55.03
2023-03-17T04:10:27.260Z,55.16
2023-03-17T04:12:55.967Z,55.29
2023-03-17T04:15:23.210Z,55.59
2023-03-17T04:17:50.529Z,55.93
2023-03-17T04:20:18.505Z,55.71
2023-03-17T04:22:45.738Z,56.01
2023-03-17T04:25:14.643Z,55.89
2023-03-17T04:27:43.011Z,55.91
2023-03-17T04:30:14.108Z,56.13
2023-03-17T04:32:41.988Z,56.44
2023-03-17T04:35:14.629Z,56.50
2023-03-17T04:37:41.925Z,56.55
2023-03-17T04:40:11.090Z,56.21
2023-03-17T04:42:38.542Z,56.58
2023-03-17T04:45:11.465Z,56.46
2023-03-17T04:47:39.589Z,56.98
2023-03-17T04:50:09.024Z,57.14
2023-03-17T04:52:37.088Z,57.00
2023-03-17T04:55:06.947Z,56.88
2023-03-17T04:57:34.802Z,57.71
2023-03-17T05:00:01.830Z,57.43
2023-03-17T05:02:29.458Z,57.24
2023-03-17T05:04:56.438Z,56.90
2023-03-17T05:07:23.714Z,56.32
2023-03-17T05:09:50.705Z,56.30
2023-03-17T05:12:17.956Z,56.72
2023-03-17T05:14:44.910Z,56.60
2023-03-17T05:17:12.266Z,56.12
2023-03-17T05:19:39.280Z,55.50
2023-03-17T05:22:06.424Z,54.22
2023-03-17T05:24:33.782Z,52.67
2023-03-17T05:27:00.938Z,50.87
2023-03-17T05:29:28.055Z,49.89
2023-03-17T05:31:55.168Z,47.57
2023-03-17T05:34:22.337Z,44.75
2023-03-17T05:36:50.620Z,44.58
2023-03-17T05:39:17.805Z,43.07
2023-03-17T05:41:44.892Z,41.41
2023-03-17T05:44:12.216Z,39.94
2023-03-17T05:46:39.251Z,41.60
2023-03-17T05:49:06.457Z,41.97
2023-03-17T05:51:36.747Z,37.32
2023-03-17T05:54:04.115Z,37.07
2023-03-17T05:56:34.026Z,37.21
2023-03-17T05:59:02.514Z,39.80
2023-03-17T06:01:31.550Z,39.60
2023-03-17T06:03:58.876Z,38.19
2023-03-17T06:06:26.111Z,34.92
2023-03-17T06:08:53.410Z,35.44
2023-03-17T06:11:21.732Z,34.44
2023-03-17T06:13:48.927Z,33.14
2023-03-17T06:16:16.848Z,32.36
2023-03-17T06:18:45.552Z,32.27
2023-03-17T06:21:13.849Z,31.70
2023-03-17T06:23:41.196Z,29.91
2023-03-17T06:26:08.368Z,30.55
2023-03-17T06:28:35.906Z,29.92
2023-03-17T06:31:05.341Z,29.56
2023-03-17T06:33:34.713Z,29.18
2023-03-17T06:36:02.220Z,28.56
2023-03-17T06:38:29.478Z,29.06
2023-03-17T06:40:56.600Z,28.48
2023-03-17T06:43:25.097Z,28.24
2023-03-17T06:45:52.730Z,28.34
2023-03-17T06:48:19.984Z,27.74
2023-03-17T06:50:50.406Z,27.00
2023-03-17T06:53:17.753Z,26.59
2023-03-17T06:55:45.305Z,26.25
2023-03-17T06:58:13.417Z,25.73
2023-03-17T07:00:40.591Z,25.89
2023-03-17T07:03:08.011Z,25.20
2023-03-17T07:05:37.881Z,24.67
2023-03-17T07:08:06.358Z,24.47
2023-03-17T07:10:33.488Z,26.85
2023-03-17T07:13:00.591Z,29.39
2023-03-17T07:15:27.710Z,30.44
2023-03-17T07:17:54.898Z,27.08
2023-03-17T07:20:22.194Z,27.67
2023-03-17T07:22:49.188Z,27.75
2023-03-17T07:25:17.769Z,27.64
2023-03-17T07:27:44.788Z,26.93
2023-03-17T07:30:13.141Z,26.34
2023-03-17T07:32:40.530Z,25.98
2023-03-17T07:35:08.334Z,26.26
2023-03-17T07:37:35.736Z,26.73
2023-03-17T07:40:04.627Z,27.74
2023-03-17T07:42:31.722Z,27.81
2023-03-17T07:44:58.937Z,29.70
2023-03-17T07:47:26.231Z,28.33
2023-03-17T07:49:53.681Z,28.52
2023-03-17T07:52:20.779Z,30.48
2023-03-17T07:54:47.856Z,29.24
2023-03-17T07:57:16.945Z,28.17
2023-03-17T07:59:44.639Z,28.00
2023-03-17T08:02:16.266Z,28.13
2023-03-17T08:04:44.801Z,29.10
2023-03-17T08:07:12.982Z,30.53
2023-03-17T08:09:40.966Z,31.05
2023-03-17T08:12:09.471Z,31.46
2023-03-17T08:14:36.801Z,31.83
2023-03-17T08:17:04.997Z,32.65
2023-03-17T08:19:32.062Z,33.03
2023-03-17T08:21:59.543Z,34.03
2023-03-17T08:24:27.253Z,34.39
2023-03-17T08:26:54.532Z,36.17
2023-03-17T08:29:21.555Z,38.14
2023-03-17T08:31:48.738Z,37.72
2023-03-17T08:34:16.726Z,37.22
2023-03-17T08:36:44.617Z,38.44
2023-03-17T08:39:12.059Z,39.05
2023-03-17T08:41:39.216Z,38.88
2023-03-17T08:44:08.968Z,37.95
2023-03-17T08:46:36.152Z,38.70
2023-03-17T08:49:03.611Z,39.22
2023-03-17T08:51:34.519Z,39.54
2023-03-17T08:54:02.447Z,40.32
2023-03-17T08:56:30.073Z,39.82
2023-03-17T08:58:57.286Z,41.87
2023-03-17T09:01:25.254Z,39.47
2023-03-17T09:03:54.900Z,40.14
2023-03-17T09:06:24.321Z,40.86
2023-03-17T09:08:55.631Z,41.82
2023-03-17T09:11:26.311Z,41.44
2023-03-17T09:13:54.695Z,41.74
2023-03-17T09:16:24.191Z,41.88
2023-03-17T09:18:51.569Z,43.53
2023-03-17T09:21:19.056Z,43.79
2023-03-17T09:23:47.128Z,43.04
2023-03-17T09:26:14.229Z,43.30
2023-03-17T09:28:41.861Z,44.18
2023-03-17T09:31:12.569Z,44.54
2023-03-17T09:33:41.000Z,46.10
2023-03-17T09:36:09.908Z,44.94
2023-03-17T09:38:40.234Z,44.99
2023-03-17T09:41:16.248Z,45.69
2023-03-17T09:44:10.256Z,45.27
2023-03-17T09:46:55.226Z,44.66
2023-03-17T09:49:49.000Z,45.73
2023-03-17T09:52:18.911Z,45.57
2023-03-17T09:54:49.748Z,45.15
2023-03-17T09:57:40.231Z,45.79
2023-03-17T10:00:19.224Z,46.50
2023-03-17T10:02:47.571Z,45.94
2023-03-17T10:05:17.375Z,46.84
2023-03-17T10:07:48.667Z,46.27
2023-03-17T10:10:23.241Z,46.74
2023-03-17T10:13:18.826Z,46.38
2023-03-17T10:15:50.645Z,47.52
2023-03-17T10:18:23.290Z,45.93
2023-03-17T10:21:07.257Z,46.51
2023-03-17T10:23:36.397Z,46.90
2023-03-17T10:26:20.304Z,46.61
2023-03-17T10:28:47.540Z,46.46
2023-03-17T10:31:20.648Z,46.22
2023-03-17T10:33:52.712Z,47.48
2023-03-17T10:36:36.454Z,47.12
2023-03-17T10:39:05.559Z,47.44
2023-03-17T10:41:36.377Z,47.25
2023-03-17T10:44:10.803Z,48.12
2023-03-17T10:46:38.954Z,47.24
2023-03-17T10:49:16.881Z,47.38
2023-03-17T10:51:46.766Z,47.38
2023-03-17T10:54:19.035Z,48.37
2023-03-17T10:57:01.553Z,48.35
2023-03-17T10:59:43.436Z,47.34
2023-03-17T11:02:22.150Z,48.22
2023-03-17T11:04:49.418Z,48.67
2023-03-17T11:07:22.297Z,48.89
2023-03-17T11:09:51.805Z,48.63
2023-03-17T11:12:25.925Z,49.49
2023-03-17T11:15:04.039Z,49.86
2023-03-17T11:17:36.951Z,48.71
2023-03-17T11:20:16.208Z,48.25
2023-03-17T11:22:54.954Z,48.66
2023-03-17T11:25:23.730Z,47.96
2023-03-17T11:28:17.946Z,48.64
2023-03-17T11:31:00.383Z,48.06
2023-03-17T11:33:49.866Z,47.13
2023-03-17T11:36:35.241Z,47.34
2023-03-17T11:39:35.585Z,48.05
2023-03-17T11:42:36.549Z,47.66
2023-03-17T11:45:40.616Z,48.15
2023-03-17T11:48:28.280Z,48.20
2023-03-17T11:51:12.234Z,47.02
2023-03-17T11:54:17.813Z,46.62
2023-03-17T11:57:03.430Z,47.43
2023-03-17T11:59:39.379Z,46.33
2023-03-17T12:02:07.386Z,45.20
2023-03-17T12:04:49.648Z,44.65
2023-03-17T12:07:29.092Z,44.91
2023-03-17T12:10:15.982Z,44.75
2023-03-17T12:12:50.860Z,44.13
2023-03-17T12:15:53.305Z,44.67
2023-03-17T12:18:31.277Z,43.36
2023-03-17T12:21:01.835Z,43.17
2023-03-17T12:23:49.950Z,43.21
2023-03-17T12:26:55.040Z,44.74
2023-03-17T12:29:28.886Z,43.09
2023-03-17T12:32:08.590Z,43.72
2023-03-17T12:34:58.417Z,44.50
2023-03-17T12:37:28.377Z,44.68
2023-03-17T12:40:32.723Z,47.26
2023-03-17T12:43:17.674Z,46.11
2023-03-17T12:45:55.023Z,46.54
2023-03-17T12:48:34.008Z,45.82
2023-03-17T12:51:43.978Z,45.23
2023-03-17T12:54:29.999Z,47.13
2023-03-17T12:57:17.713Z,44.72
2023-03-17T12:59:48.551Z,44.16
2023-03-17T13:02:27.573Z,44.62
2023-03-17T13:05:02.895Z,44.37
2023-03-17T13:07:55.001Z,45.02
2023-03-17T13:10:40.135Z,45.39
2023-03-17T13:13:12.267Z,43.22
2023-03-17T13:15:39.977Z,44.36
2023-03-17T13:18:13.727Z,44.58
2023-03-17T13:20:51.865Z,46.41
2023-03-17T13:23:23.977Z,43.31
2023-03-17T13:25:55.508Z,44.97
2023-03-17T13:28:35.062Z,44.79
2023-03-17T13:31:16.555Z,43.55
2023-03-17T13:33:49.446Z,44.56
2023-03-17T13:36:25.742Z,45.14
2023-03-17T13:39:27.279Z,45.23
2023-03-17T13:42:18.609Z,46.23
2023-03-17T13:45:01.385Z,47.31
2023-03-17T13:47:35.727Z,46.97
2023-03-17T13:50:09.079Z,45.85
2023-03-17T13:52:46.485Z,45.44
2023-03-17T13:55:23.829Z,44.94
2023-03-17T13:58:11.678Z,45.43
2023-03-17T14:00:41.762Z,45.37
2023-03-17T14:03:29.187Z,46.69
2023-03-17T14:05:56.808Z,47.41
2023-03-17T14:08:35.876Z,45.02
2023-03-17T14:11:09.155Z,45.27
2023-03-17T14:13:42.720Z,44.84
2023-03-17T14:16:30.315Z,45.09
2023-03-17T14:19:12.226Z,46.02
2023-03-17T14:21:39.401Z,45.76
2023-03-17T14:24:22.542Z,46.16
2023-03-17T14:26:51.203Z,44.49
2023-03-17T14:29:22.471Z,45.10
2023-03-17T14:31:53.563Z,46.84
2023-03-17T14:34:24.875Z,45.96
2023-03-17T14:36:52.465Z,52.51
2023-03-17T14:39:23.249Z,53.95
2023-03-17T14:42:04.836Z,55.41
2023-03-17T14:44:43.123Z,54.51
2023-03-17T14:47:20.404Z,54.28
2023-03-17T14:49:48.673Z,54.32
2023-03-17T14:52:27.477Z,54.56
2023-03-17T14:54:58.624Z,56.18
2023-03-17T14:57:32.982Z,54.47
2023-03-17T15:00:30.495Z,55.15
2023-03-17T15:03:02.169Z,55.63
2023-03-17T15:05:42.142Z,54.78
2023-03-17T15:08:36.246Z,54.65
2023-03-17T15:11:07.009Z,55.35
2023-03-17T15:13:37.060Z,55.51
2023-03-17T15:16:17.046Z,55.42
2023-03-17T15:18:44.870Z,56.34
2023-03-17T15:21:33.525Z,56.37
2023-03-17T15:24:06.805Z,55.99
2023-03-17T15:26:37.465Z,57.03
2023-03-17T15:29:04.699Z,56.04
2023-03-17T15:31:31.876Z,57.14
2023-03-17T15:33:59.277Z,55.69
2023-03-17T15:36:32.782Z,56.38
2023-03-17T15:39:01.371Z,56.69
2023-03-17T15:41:28.693Z,56.73
2023-03-17T15:43:56.588Z,57.06
2023-03-17T15:46:27.751Z,55.77
2023-03-17T15:48:55.253Z,57.60
2023-03-17T15:51:22.699Z,58.62
2023-03-17T15:53:50.368Z,57.18
2023-03-17T15:56:20.539Z,55.87
2023-03-17T15:58:49.584Z,56.61
2023-03-17T16:01:17.158Z,56.75
2023-03-17T16:03:47.267Z,58.96
2023-03-17T16:06:19.540Z,57.95
2023-03-17T16:08:46.743Z,57.08
2023-03-17T16:11:19.894Z,56.97
2023-03-17T16:13:48.016Z,57.01
2023-03-17T16:16:32.451Z,57.36
2023-03-17T16:19:00.309Z,57.92
2023-03-17T16:21:29.643Z,58.10
2023-03-17T16:23:56.926Z,58.30
2023-03-17T16:26:24.241Z,57.10
2023-03-17T16:28:51.548Z,57.47
2023-03-17T16:31:28.373Z,58.68
2023-03-17T16:33:55.809Z,57.76
2023-03-17T16:36:24.755Z,57.13
2023-03-17T16:38:52.504Z,58.47
2023-03-17T16:41:26.958Z,58.30
2023-03-17T16:44:00.246Z,58.63
2023-03-17T16:46:34.619Z,59.08
2023-03-17T16:49:02.965Z,59.12
2023-03-17T16:51:30.577Z,58.09
2023-03-17T16:53:57.738Z,58.76
2023-03-17T16:56:27.308Z,58.08
2023-03-17T16:58:54.641Z,59.76
2023-03-17T17:01:27.412Z,59.48
2023-03-17T17:03:55.785Z,59.34
2023-03-17T17:06:24.321Z,58.35
2023-03-17T17:08:52.310Z,59.53
2023-03-17T17:11:20.504Z,58.63
2023-03-17T17:13:49.168Z,58.32
2023-03-17T17:16:25.661Z,58.16
2023-03-17T17:18:53.056Z,58.33
2023-03-17T17:21:20.747Z,59.06
2023-03-17T17:23:48.135Z,58.99
2023-03-17T17:26:15.650Z,58.21
2023-03-17T17:28:42.885Z,58.80
2023-03-17T17:31:10.843Z,58.83
2023-03-17T17:33:39.613Z,58.04
2023-03-17T17:36:13.349Z,57.71
2023-03-17T17:38:40.625Z,57.85
2023-03-17T17:41:09.432Z,58.38
2023-03-17T17:43:36.727Z,58.51
2023-03-17T17:46:03.790Z,58.93
2023-03-17T17:48:31.003Z,57.77
2023-03-17T17:50:58.378Z,57.45
2023-03-17T17:53:25.988Z,58.41
2023-03-17T17:55:53.247Z,57.91
2023-03-17T17:58:24.858Z,57.87
2023-03-17T18:00:55.558Z,58.64
2023-03-17T18:03:26.373Z,57.77
2023-03-17T18:05:56.348Z,58.29
2023-03-17T18:08:24.935Z,59.80
2023-03-17T18:10:52.575Z,58.81
2023-03-17T18:13:19.910Z,58.68
2023-03-17T18:15:47.080Z,58.73
2023-03-17T18:18:14.270Z,59.34
2023-03-17T18:20:41.808Z,58.81
2023-03-17T18:23:09.101Z,59.44
2023-03-17T18:25:37.418Z,59.84
2023-03-17T18:28:05.027Z,59.66
2023-03-17T18:30:35.410Z,59.54
2023-03-17T18:33:10.228Z,59.73
2023-03-17T18:35:37.893Z,60.09
2023-03-17T18:38:05.439Z,59.68
2023-03-17T18:40:32.736Z,60.73
2023-03-17T18:42:59.849Z,60.25
2023-03-17T18:45:27.067Z,59.33
2023-03-17T18:47:54.156Z,59.25
2023-03-17T18:50:22.151Z,59.11
2023-03-17T18:52:50.074Z,59.85
2023-03-17T18:55:17.749Z,60.18
2023-03-17T18:57:45.920Z,59.05
2023-03-17T19:00:15.375Z,59.58
2023-03-17T19:02:42.749Z,60.63
2023-03-17T19:05:10.574Z,60.71
2023-03-17T19:07:40.252Z,60.02
2023-03-17T19:10:10.674Z,60.86
2023-03-17T19:12:38.589Z,60.38
2023-03-17T19:15:08.237Z,61.07
2023-03-17T19:17:35.886Z,59.59
2023-03-17T19:20:03.365Z,59.33
2023-03-17T19:22:30.682Z,60.08
2023-03-17T19:24:57.759Z,60.66
2023-03-17T19:27:25.179Z,59.83
2023-03-17T19:29:52.309Z,59.31
2023-03-17T19:32:19.588Z,59.66
2023-03-17T19:34:47.973Z,60.25
2023-03-17T19:37:15.853Z,59.56
2023-03-17T19:39:45.046Z,58.67
2023-03-17T19:42:13.455Z,59.27
2023-03-17T19:44:43.356Z,60.01
2023-03-17T19:47:10.605Z,59.06
2023-03-17T19:49:38.388Z,59.60
2023-03-17T19:52:06.830Z,59.59
2023-03-17T19:54:34.578Z,59.43
2023-03-17T19:57:01.658Z,59.39
2023-03-17T19:59:29.322Z,59.82
2023-03-17T20:01:58.197Z,60.48
2023-03-17T20:04:26.345Z,60.22
2023-03-17T20:06:55.947Z,59.64
2023-03-17T20:09:27.032Z,60.21
2023-03-17T20:11:57.395Z,60.62
2023-03-17T20:14:25.300Z,61.77
2023-03-17T20:16:53.990Z,60.64
2023-03-17T20:19:21.792Z,60.77
2023-03-17T20:21:59.981Z,60.31
2023-03-17T20:24:30.476Z,60.52
2023-03-17T20:27:00.432Z,60.04
2023-03-17T20:29:29.181Z,60.14
2023-03-17T20:31:58.233Z,59.90
2023-03-17T20:34:26.195Z,60.09
2023-03-17T20:36:53.974Z,60.99
2023-03-17T20:39:21.876Z,60.72
2023-03-17T20:41:52.151Z,59.65
2023-03-17T20:44:20.641Z,58.78
2023-03-17T20:46:49.580Z,58.47
2023-03-17T20:49:17.745Z,58.73
2023-03-17T20:51:47.289Z,59.98
2023-03-17T20:54:16.049Z,59.78
2023-03-17T20:56:46.394Z,60.20
2023-03-17T20:59:15.451Z,58.82
2023-03-17T21:01:43.086Z,58.75
2023-03-17T21:04:12.806Z,59.21
2023-03-17T21:06:42.011Z,59.28
2023-03-17T21:09:10.404Z,59.31
2023-03-17T21:11:38.233Z,59.88
2023-03-17T21:14:09.482Z,59.95
2023-03-17T21:16:37.476Z,60.08
2023-03-17T21:19:08.594Z,60.39
2023-03-17T21:21:36.820Z,60.22
2023-03-17T21:24:05.874Z,59.57
2023-03-17T21:26:33.424Z,60.16
2023-03-17T21:29:00.570Z,60.27
2023-03-17T21:31:28.086Z,60.52
2023-03-17T21:33:55.641Z,60.40
2023-03-17T21:36:23.052Z,60.38
2023-03-17T21:38:50.163Z,60.66
2023-03-17T21:41:31.158Z,60.64
2023-03-17T21:43:58.356Z,60.70
2023-03-17T21:46:25.843Z,60.94
2023-03-17T21:48:54.223Z,61.01
2023-03-17T21:51:21.646Z,61.34
2023-03-17T21:53:49.120Z,61.71
2023-03-17T21:56:17.127Z,61.77
2023-03-17T21:58:44.395Z,61.96
2023-03-17T22:01:12.184Z,62.24
2023-03-17T22:03:40.202Z,62.88
2023-03-17T22:06:07.728Z,63.04
2023-03-17T22:08:34.901Z,63.06
2023-03-17T22:11:07.309Z,62.92
2023-03-17T22:13:34.977Z,63.20
2023-03-17T22:16:02.572Z,63.06
2023-03-17T22:18:29.856Z,63.13
2023-03-17T22:20:59.048Z,63.17
2023-03-17T22:23:26.952Z,63.24
2023-03-17T22:25:54.175Z,63.13
2023-03-17T22:28:21.638Z,63.18
2023-03-17T22:30:49.296Z,63.02
2023-03-17T22:33:17.724Z,63.24
2023-03-17T22:35:44.855Z,63.26
2023-03-17T22:38:13.248Z,63.51
2023-03-17T22:40:40.909Z,63.47
2023-03-17T22:43:08.509Z,63.25
2023-03-17T22:45:35.709Z,63.42
2023-03-17T22:48:02.707Z,63.34
2023-03-17T22:50:30.199Z,63.33
2023-03-17T22:52:57.796Z,63.55
2023-03-17T22:55:25.068Z,63.85
2023-03-17T22:57:52.339Z,63.68
2023-03-17T23:00:19.758Z,63.71
2023-03-17T23:02:46.896Z,63.76
2023-03-17T23:05:14.787Z,63.99
2023-03-17T23:07:50.396Z,64.04
2023-03-17T23:10:23.157Z,63.94
2023-03-17T23:12:51.193Z,64.20
2023-03-17T23:15:20.034Z,63.85
2023-03-17T23:17:47.637Z,63.96
2023-03-17T23:20:15.755Z,63.84
2023-03-17T23:22:43.267Z,63.42
2023-03-17T23:25:10.896Z,63.54
2023-03-17T23:27:37.940Z,63.53
2023-03-17T23:30:06.002Z,63.67
2023-03-17T23:32:34.350Z,63.42
2023-03-17T23:35:01.507Z,63.33
2023-03-17T23:37:31.293Z,63.26
2023-03-17T23:39:58.271Z,63.25
2023-03-17T23:42:25.461Z,63.07
2023-03-17T23:44:52.764Z,63.01
2023-03-17T23:47:20.690Z,62.61
2023-03-17T23:49:50.294Z,62.67
2023-03-17T23:52:17.970Z,62.57
2023-03-17T23:54:45.772Z,62.61
2023-03-17T23:57:13.342Z,62.43
2023-03-17T23:59:40.591Z,62.59
